createdAt,value
2023-02-12T00:01:37.132Z,11.76
2023-02-12T00:04:04.308Z,11.73
2023-02-12T00:06:31.319Z,11.73
2023-02-12T00:08:58.718Z,11.73
2023-02-12T00:11:27.478Z,11.71
2023-02-12T00:13:54.445Z,11.71
2023-02-12T00:16:22.748Z,11.70
2023-02-12T00:18:51.477Z,11.70
2023-02-12T00:21:18.506Z,11.71
2023-02-12T00:23:45.517Z,11.70
2023-02-12T00:26:13.942Z,11.70
2023-02-12T00:28:40.876Z,11.70
2023-02-12T00:31:09.134Z,11.73
2023-02-12T00:33:36.140Z,11.70
2023-02-12T00:36:03.261Z,11.70
2023-02-12T00:38:30.272Z,11.71
2023-02-12T00:40:57.153Z,11.72
2023-02-12T00:43:24.122Z,11.71
2023-02-12T00:45:51.082Z,11.71
2023-02-12T00:48:18.193Z,11.69
2023-02-12T00:50:46.231Z,11.70
2023-02-12T00:53:13.208Z,11.69
2023-02-12T00:55:40.349Z,11.68
2023-02-12T00:58:07.338Z,11.67
2023-02-12T01:00:34.334Z,11.65
2023-02-12T01:03:01.362Z,11.63
2023-02-12T01:05:28.200Z,11.63
2023-02-12T01:07:55.135Z,11.62
2023-02-12T01:10:22.339Z,11.62
2023-02-12T01:12:49.680Z,11.59
2023-02-12T01:15:17.257Z,11.57
2023-02-12T01:17:44.155Z,11.56
2023-02-12T01:20:12.910Z,11.56
2023-02-12T01:22:40.214Z,11.57
2023-02-12T01:25:07.345Z,11.55
2023-02-12T01:27:34.240Z,11.54
2023-02-12T01:30:01.172Z,11.54
2023-02-12T01:32:28.106Z,11.52
2023-02-12T01:34:55.140Z,11.55
2023-02-12T01:37:21.973Z,11.58
2023-02-12T01:39:48.801Z,11.57
2023-02-12T01:42:18.794Z,11.59
2023-02-12T01:45:05.367Z,11.60
2023-02-12T01:47:32.626Z,11.59
2023-02-12T01:49:59.478Z,11.58
2023-02-12T01:52:30.672Z,11.55
2023-02-12T01:54:59.690Z,11.53
2023-02-12T01:57:28.728Z,11.53
2023-02-12T01:59:56.647Z,11.54
2023-02-12T02:02:23.711Z,11.55
2023-02-12T02:04:53.676Z,11.55
2023-02-12T02:07:20.371Z,11.53
2023-02-12T02:09:49.957Z,11.51
2023-02-12T02:12:19.715Z,11.52
2023-02-12T02:14:47.732Z,11.49
2023-02-12T02:17:17.823Z,11.47
2023-02-12T02:19:47.558Z,11.43
2023-02-12T02:22:14.697Z,11.42
2023-02-12T02:24:44.614Z,11.45
2023-02-12T02:27:15.764Z,11.45
2023-02-12T02:29:44.297Z,11.44
2023-02-12T02:32:17.030Z,11.44
2023-02-12T02:34:50.335Z,11.43
2023-02-12T02:37:17.416Z,11.41
2023-02-12T02:39:49.058Z,11.38
2023-02-12T02:42:16.177Z,11.37
2023-02-12T02:44:46.016Z,11.35
2023-02-12T02:47:16.696Z,11.33
2023-02-12T02:49:46.642Z,11.35
2023-02-12T02:52:16.737Z,11.35
2023-02-12T02:54:47.398Z,11.33
2023-02-12T02:57:17.130Z,11.32
2023-02-12T02:59:47.276Z,11.32
2023-02-12T03:02:15.959Z,11.34
2023-02-12T03:04:46.050Z,11.34
2023-02-12T03:07:15.940Z,11.38
2023-02-12T03:09:45.832Z,11.37
2023-02-12T03:12:18.893Z,11.36
2023-02-12T03:14:49.229Z,11.33
2023-02-12T03:17:18.866Z,11.33
2023-02-12T03:19:47.714Z,11.33
2023-02-12T03:22:17.552Z,11.32
2023-02-12T03:24:46.586Z,11.29
2023-02-12T03:27:13.661Z,11.26
2023-02-12T03:29:40.379Z,11.23
2023-02-12T03:32:10.547Z,11.23
2023-02-12T03:34:40.301Z,11.25
2023-02-12T03:37:08.472Z,11.24
2023-02-12T03:39:35.544Z,11.21
2023-02-12T03:42:05.282Z,11.21
2023-02-12T03:44:35.050Z,11.22
2023-02-12T03:47:06.115Z,11.19
2023-02-12T03:49:35.831Z,11.18
2023-02-12T03:52:03.820Z,11.15
2023-02-12T03:54:33.518Z,11.14
2023-02-12T03:57:03.889Z,11.13
2023-02-12T03:59:30.942Z,11.12
2023-02-12T04:01:58.840Z,11.11
2023-02-12T04:04:26.726Z,11.12
2023-02-12T04:06:54.535Z,11.10
2023-02-12T04:09:22.402Z,11.11
2023-02-12T04:11:50.554Z,11.11
2023-02-12T04:14:20.317Z,11.13
2023-02-12T04:16:51.750Z,11.15
2023-02-12T04:19:25.564Z,11.18
2023-02-12T04:21:53.653Z,11.17
2023-02-12T04:24:23.408Z,11.16
2023-02-12T04:26:53.468Z,11.14
2023-02-12T04:29:20.750Z,11.14
2023-02-12T04:31:50.846Z,11.13
2023-02-12T04:34:26.615Z,11.11
2023-02-12T04:36:53.757Z,11.10
2023-02-12T04:39:22.713Z,11.11
2023-02-12T04:41:49.798Z,11.12
2023-02-12T04:44:18.784Z,11.10
2023-02-12T04:46:45.626Z,11.10
2023-02-12T04:49:14.479Z,11.10
2023-02-12T04:51:41.184Z,11.09
2023-02-12T04:54:07.895Z,11.10
2023-02-12T04:56:34.670Z,11.10
2023-02-12T04:59:01.488Z,11.11
2023-02-12T05:01:31.266Z,11.10
2023-02-12T05:03:58.227Z,11.11
2023-02-12T05:06:24.966Z,11.13
2023-02-12T05:08:53.159Z,11.13
2023-02-12T05:11:20.385Z,11.12
2023-02-12T05:13:48.801Z,11.12
2023-02-12T05:16:15.878Z,11.13
2023-02-12T05:18:42.819Z,11.16
2023-02-12T05:21:09.668Z,11.17
2023-02-12T05:23:38.351Z,11.18
2023-02-12T05:26:07.642Z,11.17
2023-02-12T05:28:34.843Z,11.17
2023-02-12T05:31:05.147Z,11.15
2023-02-12T05:33:32.160Z,11.16
2023-02-12T05:36:02.068Z,11.15
2023-02-12T05:38:28.789Z,11.19
2023-02-12T05:41:01.442Z,11.19
2023-02-12T05:43:28.182Z,11.21
2023-02-12T05:45:55.324Z,11.22
2023-02-12T05:48:22.172Z,11.22
2023-02-12T05:50:49.700Z,11.22
2023-02-12T05:53:17.367Z,11.22
2023-02-12T05:55:44.090Z,11.23
2023-02-12T05:58:10.808Z,11.24
2023-02-12T06:00:37.657Z,11.25
2023-02-12T06:03:04.439Z,11.25
2023-02-12T06:05:31.246Z,11.27
2023-02-12T06:07:58.100Z,11.28
2023-02-12T06:10:24.796Z,11.28
2023-02-12T06:12:57.255Z,11.26
2023-02-12T06:15:23.944Z,11.25
2023-02-12T06:17:50.657Z,11.23
2023-02-12T06:20:17.461Z,11.20
2023-02-12T06:22:44.268Z,11.19
2023-02-12T06:25:11.574Z,11.21
2023-02-12T06:27:38.375Z,11.21
2023-02-12T06:30:05.541Z,11.21
2023-02-12T06:32:32.722Z,11.21
2023-02-12T06:34:59.458Z,11.23
2023-02-12T06:37:26.248Z,11.23
2023-02-12T06:39:53.413Z,11.25
2023-02-12T06:42:20.114Z,11.26
2023-02-12T06:44:47.869Z,11.24
2023-02-12T06:47:14.716Z,11.26
2023-02-12T06:49:41.467Z,11.23
2023-02-12T06:52:08.167Z,11.22
2023-02-12T06:54:34.944Z,11.22
2023-02-12T06:57:01.665Z,11.21
2023-02-12T06:59:28.485Z,11.19
2023-02-12T07:01:55.219Z,11.16
2023-02-12T07:04:21.903Z,11.16
2023-02-12T07:06:49.210Z,11.16
2023-02-12T07:09:16.010Z,11.14
2023-02-12T07:11:42.789Z,11.11
2023-02-12T07:14:13.836Z,11.07
2023-02-12T07:16:40.529Z,11.05
2023-02-12T07:19:07.279Z,11.04
2023-02-12T07:21:34.040Z,11.06
2023-02-12T07:24:03.795Z,11.07
2023-02-12T07:26:30.509Z,11.07
2023-02-12T07:28:57.994Z,11.11
2023-02-12T07:31:30.625Z,11.08
2023-02-12T07:33:58.587Z,11.10
2023-02-12T07:36:26.442Z,11.09
2023-02-12T07:38:56.869Z,11.10
2023-02-12T07:41:25.030Z,11.08
2023-02-12T07:43:55.103Z,11.11
2023-02-12T07:46:30.573Z,11.08
2023-02-12T07:49:01.784Z,11.07
2023-02-12T07:51:28.864Z,11.08
2023-02-12T07:53:56.077Z,11.09
2023-02-12T07:56:24.532Z,11.11
2023-02-12T07:58:52.468Z,11.15
2023-02-12T08:01:22.241Z,11.17
2023-02-12T08:03:49.615Z,11.17
2023-02-12T08:06:19.346Z,11.18
2023-02-12T08:08:46.964Z,11.21
2023-02-12T08:11:14.686Z,11.22
2023-02-12T08:13:41.733Z,11.25
2023-02-12T08:16:10.574Z,11.27
2023-02-12T08:18:37.368Z,11.30
2023-02-12T08:21:06.781Z,11.33
2023-02-12T08:23:34.222Z,11.35
2023-02-12T08:26:04.044Z,11.37
2023-02-12T08:28:31.005Z,11.36
2023-02-12T08:31:02.227Z,11.37
2023-02-12T08:33:29.054Z,11.38
2023-02-12T08:36:02.265Z,11.40
2023-02-12T08:38:29.138Z,11.43
2023-02-12T08:40:56.552Z,11.43
2023-02-12T08:43:23.342Z,11.42
2023-02-12T08:45:50.495Z,11.39
2023-02-12T08:48:19.787Z,11.35
2023-02-12T08:50:47.011Z,11.37
2023-02-12T08:53:13.791Z,11.37
2023-02-12T08:55:40.567Z,11.38
2023-02-12T08:58:07.356Z,11.36
2023-02-12T09:00:34.165Z,11.33
2023-02-12T09:03:00.921Z,11.32
2023-02-12T09:05:27.643Z,11.34
2023-02-12T09:07:54.439Z,11.38
2023-02-12T09:10:22.189Z,11.41
2023-02-12T09:12:49.005Z,11.42
2023-02-12T09:15:15.838Z,11.47
2023-02-12T09:17:43.878Z,11.47
2023-02-12T09:20:11.313Z,11.47
2023-02-12T09:22:38.930Z,11.44
2023-02-12T09:25:07.062Z,11.43
2023-02-12T09:27:34.091Z,11.43
2023-02-12T09:30:03.966Z,11.38
2023-02-12T09:32:30.830Z,11.36
2023-02-12T09:35:00.710Z,11.34
2023-02-12T09:37:28.116Z,11.34
2023-02-12T09:39:58.075Z,11.32
2023-02-12T09:42:35.540Z,11.34
2023-02-12T09:45:02.810Z,11.36
2023-02-12T09:47:34.401Z,11.37
2023-02-12T09:50:04.472Z,11.32
2023-02-12T09:52:31.170Z,11.34
2023-02-12T09:54:58.657Z,11.38
2023-02-12T09:57:29.878Z,11.38
2023-02-12T09:59:58.686Z,11.38
2023-02-12T10:02:26.101Z,11.35
2023-02-12T10:05:01.607Z,11.33
2023-02-12T10:07:38.071Z,11.32
2023-02-12T10:10:08.167Z,11.31
2023-02-12T10:12:39.506Z,11.30
2023-02-12T10:15:06.603Z,11.30
2023-02-12T10:17:34.763Z,11.27
2023-02-12T10:20:04.630Z,11.27
2023-02-12T10:22:37.516Z,11.29
2023-02-12T10:25:10.770Z,11.33
2023-02-12T10:27:41.338Z,11.34
2023-02-12T10:30:15.469Z,11.33
2023-02-12T10:32:43.660Z,11.41
2023-02-12T10:35:13.857Z,11.46
2023-02-12T10:37:46.351Z,11.46
2023-02-12T10:40:16.503Z,11.46
2023-02-12T10:42:44.900Z,11.48
2023-02-12T10:45:14.297Z,11.53
2023-02-12T10:47:41.096Z,11.58
2023-02-12T10:50:16.866Z,11.61
2023-02-12T10:52:47.078Z,11.64
2023-02-12T10:55:16.967Z,11.59
2023-02-12T10:57:46.581Z,11.57
2023-02-12T11:00:25.641Z,11.57
2023-02-12T11:02:55.807Z,11.51
2023-02-12T11:05:24.442Z,11.49
2023-02-12T11:07:52.605Z,11.49
2023-02-12T11:10:22.865Z,11.49
2023-02-12T11:12:49.615Z,11.48
2023-02-12T11:15:17.784Z,11.44
2023-02-12T11:17:46.447Z,11.39
2023-02-12T11:20:17.121Z,11.40
2023-02-12T11:22:47.042Z,11.40
2023-02-12T11:25:17.214Z,11.37
2023-02-12T11:27:44.260Z,11.36
2023-02-12T11:30:11.432Z,11.36
2023-02-12T11:32:38.265Z,11.36
2023-02-12T11:35:06.826Z,11.39
2023-02-12T11:37:36.957Z,11.44
2023-02-12T11:40:04.597Z,11.49
2023-02-12T11:42:35.547Z,11.49
2023-02-12T11:45:02.936Z,11.51
2023-02-12T11:47:32.254Z,11.47
2023-02-12T11:50:06.760Z,11.47
2023-02-12T11:52:35.460Z,11.53
2023-02-12T11:55:04.489Z,11.54
2023-02-12T11:57:34.964Z,11.54
2023-02-12T12:00:02.865Z,11.57
2023-02-12T12:02:38.379Z,11.62
2023-02-12T12:05:08.163Z,11.70
2023-02-12T12:07:37.142Z,11.67
2023-02-12T12:10:07.697Z,11.70
2023-02-12T12:12:40.738Z,11.68
2023-02-12T12:15:19.246Z,11.65
2023-02-12T12:17:52.596Z,11.68
2023-02-12T12:20:22.891Z,11.66
2023-02-12T12:22:54.675Z,11.63
2023-02-12T12:25:24.618Z,11.61
2023-02-12T12:27:57.573Z,11.61
2023-02-12T12:30:39.587Z,11.62
2023-02-12T12:33:15.396Z,11.65
2023-02-12T12:35:45.318Z,11.70
2023-02-12T12:38:15.193Z,11.71
2023-02-12T12:40:45.758Z,11.72
2023-02-12T12:43:25.092Z,11.71
2023-02-12T12:45:52.302Z,11.75
2023-02-12T12:48:22.191Z,11.73
2023-02-12T12:50:52.288Z,11.69
2023-02-12T12:53:22.212Z,11.70
2023-02-12T12:55:52.432Z,11.72
2023-02-12T12:58:19.513Z,11.76
2023-02-12T13:00:50.884Z,11.78
2023-02-12T13:03:20.979Z,11.80
2023-02-12T13:05:50.598Z,11.77
2023-02-12T13:08:19.069Z,11.73
2023-02-12T13:10:50.965Z,11.72
2023-02-12T13:13:26.527Z,11.70
2023-02-12T13:15:56.578Z,11.70
2023-02-12T13:18:24.951Z,11.68
2023-02-12T13:20:57.950Z,11.68
2023-02-12T13:23:26.023Z,11.67
2023-02-12T13:26:00.886Z,11.67
2023-02-12T13:28:30.820Z,11.65
2023-02-12T13:30:59.128Z,11.65
2023-02-12T13:33:29.553Z,11.68
2023-02-12T13:35:59.466Z,11.69
2023-02-12T13:38:33.278Z,11.67
2023-02-12T13:41:03.203Z,11.67
2023-02-12T13:43:30.442Z,11.69
2023-02-12T13:46:03.364Z,11.68
2023-02-12T13:48:33.775Z,11.71
2023-02-12T13:51:03.615Z,11.69
2023-02-12T13:53:44.091Z,11.70
2023-02-12T13:56:14.716Z,11.70
2023-02-12T13:58:47.594Z,11.71
2023-02-12T14:01:34.502Z,11.75
2023-02-12T14:04:04.839Z,11.73
2023-02-12T14:06:35.417Z,11.72
2023-02-12T14:09:05.180Z,11.69
2023-02-12T14:11:32.185Z,11.70
2023-02-12T14:14:01.903Z,11.70
2023-02-12T14:16:30.132Z,11.70
2023-02-12T14:19:00.029Z,11.73
2023-02-12T14:21:28.214Z,11.72
2023-02-12T14:23:55.105Z,11.69
2023-02-12T14:26:23.777Z,11.67
2023-02-12T14:28:51.050Z,11.68
2023-02-12T14:31:18.436Z,11.67
2023-02-12T14:33:46.237Z,11.67
2023-02-12T14:36:14.741Z,11.68
2023-02-12T14:38:47.534Z,11.70
2023-02-12T14:41:19.882Z,11.70
2023-02-12T14:43:49.731Z,11.68
2023-02-12T14:46:22.970Z,11.69
2023-02-12T14:48:52.947Z,11.71
2023-02-12T14:51:27.976Z,11.70
2023-02-12T14:53:56.187Z,11.67
2023-02-12T14:56:23.830Z,11.62
2023-02-12T14:58:52.177Z,11.59
2023-02-12T15:01:25.379Z,11.59
2023-02-12T15:03:54.838Z,11.58
2023-02-12T15:06:24.252Z,11.61
2023-02-12T15:08:51.519Z,11.59
2023-02-12T15:11:21.807Z,11.60
2023-02-12T15:13:53.769Z,11.61
2023-02-12T15:16:26.694Z,11.62
2023-02-12T15:18:56.644Z,11.59
2023-02-12T15:21:25.367Z,11.59
2023-02-12T15:23:58.026Z,11.57
2023-02-12T15:26:26.260Z,11.56
2023-02-12T15:28:53.624Z,11.56
2023-02-12T15:31:22.937Z,11.55
2023-02-12T15:33:54.766Z,11.55
2023-02-12T15:36:22.689Z,11.57
2023-02-12T15:38:51.621Z,11.59
2023-02-12T15:41:21.451Z,11.58
2023-02-12T15:43:48.528Z,11.58
2023-02-12T15:46:16.557Z,11.58
2023-02-12T15:48:46.650Z,11.59
2023-02-12T15:51:15.411Z,11.56
2023-02-12T15:53:42.588Z,11.52
2023-02-12T15:56:14.475Z,11.52
2023-02-12T15:58:41.623Z,11.50
2023-02-12T16:01:08.828Z,11.50
2023-02-12T16:03:37.147Z,11.49
2023-02-12T16:06:11.348Z,11.49
2023-02-12T16:08:39.161Z,11.47
2023-02-12T16:11:14.197Z,11.47
2023-02-12T16:13:44.433Z,11.47
2023-02-12T16:16:12.549Z,11.46
2023-02-12T16:18:40.481Z,11.44
2023-02-12T16:21:10.376Z,11.42
2023-02-12T16:23:37.820Z,11.39
2023-02-12T16:26:04.924Z,11.39
2023-02-12T16:28:34.989Z,11.40
2023-02-12T16:31:05.226Z,11.40
2023-02-12T16:33:35.609Z,11.39
2023-02-12T16:36:06.980Z,11.39
2023-02-12T16:38:36.946Z,11.37
2023-02-12T16:41:12.464Z,11.39
2023-02-12T16:43:41.695Z,11.39
2023-02-12T16:46:09.066Z,11.35
2023-02-12T16:48:38.214Z,11.31
2023-02-12T16:51:06.488Z,11.32
2023-02-12T16:53:35.651Z,11.26
2023-02-12T16:56:04.467Z,11.26
2023-02-12T16:58:32.132Z,11.28
2023-02-12T17:01:01.795Z,11.27
2023-02-12T17:03:28.740Z,11.29
2023-02-12T17:05:59.035Z,11.29
2023-02-12T17:08:26.369Z,11.28
2023-02-12T17:10:53.434Z,11.24
2023-02-12T17:13:23.663Z,11.22
2023-02-12T17:15:53.499Z,11.17
2023-02-12T17:18:20.815Z,11.17
2023-02-12T17:20:49.570Z,11.18
2023-02-12T17:23:16.680Z,11.16
2023-02-12T17:25:43.577Z,11.18
2023-02-12T17:28:10.893Z,11.15
2023-02-12T17:30:44.001Z,11.13
2023-02-12T17:33:10.889Z,11.13
2023-02-12T17:35:40.933Z,11.13
2023-02-12T17:38:07.954Z,11.12
2023-02-12T17:40:36.111Z,11.11
2023-02-12T17:43:03.528Z,11.11
2023-02-12T17:45:30.478Z,11.11
2023-02-12T17:47:57.700Z,11.07
2023-02-12T17:50:24.484Z,11.09
2023-02-12T17:52:51.691Z,11.10
2023-02-12T17:55:18.672Z,11.11
2023-02-12T17:57:45.649Z,11.11
2023-02-12T18:00:13.342Z,11.11
2023-02-12T18:02:40.410Z,11.13
2023-02-12T18:05:07.709Z,11.14
2023-02-12T18:07:37.022Z,11.14
2023-02-12T18:10:05.421Z,11.15
2023-02-12T18:12:33.196Z,11.20
2023-02-12T18:15:00.943Z,11.22
2023-02-12T18:17:28.556Z,11.26
2023-02-12T18:19:55.450Z,11.23
2023-02-12T18:22:22.875Z,11.23
2023-02-12T18:24:49.995Z,11.21
2023-02-12T18:27:19.830Z,11.21
2023-02-12T18:29:46.857Z,11.23
2023-02-12T18:32:16.671Z,11.24
2023-02-12T18:34:44.057Z,11.23
2023-02-12T18:37:12.680Z,11.23
2023-02-12T18:39:39.615Z,11.23
2023-02-12T18:42:06.767Z,11.22
2023-02-12T18:44:33.552Z,11.17
2023-02-12T18:47:00.469Z,11.17
2023-02-12T18:49:27.910Z,11.13
2023-02-12T18:51:55.112Z,11.14
2023-02-12T18:54:22.366Z,11.11
2023-02-12T18:56:51.070Z,11.10
2023-02-12T18:59:18.612Z,11.07
2023-02-12T19:01:46.641Z,11.05
2023-02-12T19:04:14.266Z,11.04
2023-02-12T19:06:42.602Z,11.02
2023-02-12T19:09:09.783Z,10.99
2023-02-12T19:11:37.441Z,10.97
2023-02-12T19:14:04.232Z,10.95
2023-02-12T19:16:32.783Z,10.95
2023-02-12T19:19:01.619Z,10.94
2023-02-12T19:21:29.025Z,10.90
2023-02-12T19:23:56.650Z,10.91
2023-02-12T19:26:24.028Z,10.94
2023-02-12T19:28:50.832Z,10.95
2023-02-12T19:31:19.644Z,10.96
2023-02-12T19:33:47.130Z,10.99
2023-02-12T19:36:15.416Z,10.98
2023-02-12T19:38:42.451Z,10.99
2023-02-12T19:41:10.848Z,10.99
2023-02-12T19:43:41.104Z,10.97
2023-02-12T19:46:09.749Z,10.96
2023-02-12T19:48:36.989Z,10.96
2023-02-12T19:51:03.942Z,10.98
2023-02-12T19:53:30.791Z,11.01
2023-02-12T19:56:01.152Z,11.03
2023-02-12T19:58:28.216Z,11.02
2023-02-12T20:00:55.432Z,11.01
2023-02-12T20:03:23.716Z,10.98
2023-02-12T20:05:53.295Z,10.95
2023-02-12T20:08:20.661Z,10.94
2023-02-12T20:10:47.410Z,10.92
2023-02-12T20:13:14.281Z,10.89
2023-02-12T20:15:41.091Z,10.85
2023-02-12T20:18:08.376Z,10.85
2023-02-12T20:20:35.483Z,10.82
2023-02-12T20:23:02.362Z,10.80
2023-02-12T20:25:30.288Z,10.81
2023-02-12T20:27:57.594Z,10.80
2023-02-12T20:30:24.971Z,10.80
2023-02-12T20:32:53.122Z,10.82
2023-02-12T20:35:19.872Z,10.81
2023-02-12T20:37:49.102Z,10.79
2023-02-12T20:40:15.914Z,10.79
2023-02-12T20:42:42.780Z,10.81
2023-02-12T20:45:09.514Z,10.81
2023-02-12T20:47:38.743Z,10.81
2023-02-12T20:50:06.689Z,10.79
2023-02-12T20:52:33.650Z,10.79
2023-02-12T20:55:00.688Z,10.80
2023-02-12T20:57:27.968Z,10.81
2023-02-12T20:59:54.749Z,10.82
2023-02-12T21:02:22.380Z,10.81
2023-02-12T21:04:50.354Z,10.78
2023-02-12T21:07:17.189Z,10.78
2023-02-12T21:09:43.966Z,10.79
2023-02-12T21:12:13.881Z,10.77
2023-02-12T21:14:43.836Z,10.76
2023-02-12T21:17:13.688Z,10.77
2023-02-12T21:19:40.553Z,10.75
2023-02-12T21:22:07.320Z,10.73
2023-02-12T21:24:34.173Z,10.74
2023-02-12T21:27:01.014Z,10.73
2023-02-12T21:29:29.467Z,10.73
2023-02-12T21:31:56.624Z,10.73
2023-02-12T21:34:23.790Z,10.76
2023-02-12T21:36:51.476Z,10.77
2023-02-12T21:39:25.519Z,10.76
2023-02-12T21:41:53.673Z,10.75
2023-02-12T21:44:21.584Z,10.72
2023-02-12T21:46:51.526Z,10.73
2023-02-12T21:49:24.867Z,10.74
2023-02-12T21:51:53.115Z,10.72
2023-02-12T21:54:22.987Z,10.71
2023-02-12T21:56:50.476Z,10.70
2023-02-12T21:59:17.737Z,10.71
2023-02-12T22:01:50.109Z,10.68
2023-02-12T22:04:17.362Z,10.65
2023-02-12T22:06:46.228Z,10.62
2023-02-12T22:09:14.505Z,10.61
2023-02-12T22:11:42.161Z,10.61
2023-02-12T22:14:11.616Z,10.58
2023-02-12T22:16:38.787Z,10.59
2023-02-12T22:19:06.273Z,10.61
2023-02-12T22:21:34.666Z,10.60
2023-02-12T22:24:02.728Z,10.62
2023-02-12T22:26:31.167Z,10.64
2023-02-12T22:29:00.567Z,10.64
2023-02-12T22:31:29.736Z,10.62
2023-02-12T22:33:58.095Z,10.59
2023-02-12T22:36:25.879Z,10.58
2023-02-12T22:38:53.815Z,10.54
2023-02-12T22:41:20.963Z,10.52
2023-02-12T22:43:48.399Z,10.49
2023-02-12T22:46:16.429Z,10.53
2023-02-12T22:48:43.369Z,10.52
2023-02-12T22:51:13.387Z,10.51
2023-02-12T22:53:40.335Z,10.50
2023-02-12T22:56:07.857Z,10.48
2023-02-12T22:58:35.288Z,10.48
2023-02-12T23:01:05.702Z,10.45
2023-02-12T23:03:33.045Z,10.42
2023-02-12T23:06:03.097Z,10.37
2023-02-12T23:08:30.032Z,10.38
2023-02-12T23:10:57.225Z,10.37
2023-02-12T23:13:29.602Z,10.36
2023-02-12T23:15:57.449Z,10.34
2023-02-12T23:18:24.576Z,10.32
2023-02-12T23:20:52.083Z,10.31
2023-02-12T23:23:19.682Z,10.29
2023-02-12T23:25:46.576Z,10.31
2023-02-12T23:28:13.627Z,10.28
2023-02-12T23:30:40.768Z,10.25
2023-02-12T23:33:07.697Z,10.24
2023-02-12T23:35:34.581Z,10.21
2023-02-12T23:38:01.553Z,10.20
2023-02-12T23:40:28.459Z,10.18
2023-02-12T23:42:55.427Z,10.12
2023-02-12T23:45:22.346Z,10.10
2023-02-12T23:47:49.435Z,10.06
2023-02-12T23:50:16.501Z,10.05
2023-02-12T23:52:43.482Z,10.03
2023-02-12T23:55:10.390Z,10.03
2023-02-12T23:57:37.201Z,10.04
